createdAt,value
2023-05-14T00:00:48.229Z,98436.02
2023-05-14T00:03:21.048Z,98437.92
2023-05-14T00:05:50.977Z,98441.05
2023-05-14T00:08:21.785Z,98437.96
2023-05-14T00:10:53.654Z,98439.60
2023-05-14T00:13:25.065Z,98435.05
2023-05-14T00:15:56.831Z,98429.81
2023-05-14T00:18:29.646Z,98429.05
2023-05-14T00:21:37.943Z,98425.96
2023-05-14T00:24:21.556Z,98427.19
2023-05-14T00:26:57.910Z,98424.23
2023-05-14T00:29:29.682Z,98422.96
2023-05-14T00:32:05.798Z,98420.72
2023-05-14T00:34:48.107Z,98419.23
2023-05-14T00:37:23.547Z,98419.14
2023-05-14T00:39:53.836Z,98418.59
2023-05-14T00:42:24.209Z,98416.35
2023-05-14T00:44:54.611Z,98410.74
2023-05-14T00:47:25.095Z,98409.48
2023-05-14T00:49:55.796Z,98408.83
2023-05-14T00:52:26.214Z,98408.02
2023-05-14T00:54:57.943Z,98410.00
2023-05-14T00:57:28.329Z,98410.45
2023-05-14T00:59:58.739Z,98402.95
2023-05-14T01:02:29.110Z,98410.37
2023-05-14T01:04:59.744Z,98407.07
2023-05-14T01:07:33.986Z,98402.95
2023-05-14T01:10:07.344Z,98400.55
2023-05-14T01:12:41.617Z,98402.48
2023-05-14T01:15:13.744Z,98397.20
2023-05-14T01:17:46.502Z,98397.56
2023-05-14T01:20:17.104Z,98395.67
2023-05-14T01:22:47.457Z,98396.39
2023-05-14T01:25:17.742Z,98393.29
2023-05-14T01:27:54.112Z,98390.39
2023-05-14T01:30:28.771Z,98389.95
2023-05-14T01:33:07.234Z,98385.92
2023-05-14T01:35:37.831Z,98389.85
2023-05-14T01:38:10.458Z,98387.52
2023-05-14T01:40:39.622Z,98381.73
2023-05-14T01:43:10.249Z,98386.63
2023-05-14T01:45:40.870Z,98387.55
2023-05-14T01:48:11.322Z,98387.44
2023-05-14T01:50:42.389Z,98393.02
2023-05-14T01:53:12.597Z,98392.71
2023-05-14T01:55:43.042Z,98389.14
2023-05-14T01:58:13.170Z,98389.73
2023-05-14T02:00:43.550Z,98386.13
2023-05-14T02:03:14.028Z,98385.49
2023-05-14T02:05:44.326Z,98383.55
2023-05-14T02:08:14.463Z,98382.81
2023-05-14T02:10:44.985Z,98381.07
2023-05-14T02:13:15.458Z,98380.75
2023-05-14T02:15:45.772Z,98378.17
2023-05-14T02:18:16.061Z,98377.88
2023-05-14T02:20:46.419Z,98375.85
2023-05-14T02:23:16.631Z,98372.02
2023-05-14T02:25:48.872Z,98371.99
2023-05-14T02:28:19.086Z,98372.00
2023-05-14T02:30:49.447Z,98370.15
2023-05-14T02:33:19.941Z,98368.99
2023-05-14T02:35:50.465Z,98358.80
2023-05-14T02:38:22.332Z,98366.91
2023-05-14T02:40:53.062Z,98367.45
2023-05-14T02:43:23.655Z,98364.68
2023-05-14T02:45:54.001Z,98364.16
2023-05-14T02:48:24.899Z,98363.67
2023-05-14T02:50:55.240Z,98364.09
2023-05-14T02:53:25.442Z,98363.45
2023-05-14T02:55:55.967Z,98360.39
2023-05-14T02:58:28.147Z,98357.17
2023-05-14T03:00:59.075Z,98356.89
2023-05-14T03:03:31.553Z,98357.06
2023-05-14T03:06:02.678Z,98351.40
2023-05-14T03:08:32.788Z,98356.84
2023-05-14T03:11:02.929Z,98360.12
2023-05-14T03:13:33.146Z,98355.46
2023-05-14T03:16:03.266Z,98351.84
2023-05-14T03:18:34.625Z,98353.92
2023-05-14T03:21:04.873Z,98349.61
2023-05-14T03:23:35.529Z,98351.73
2023-05-14T03:26:06.331Z,98351.37
2023-05-14T03:28:36.714Z,98348.55
2023-05-14T03:31:07.015Z,98352.15
2023-05-14T03:33:37.395Z,98349.20
2023-05-14T03:36:08.706Z,98345.71
2023-05-14T03:38:38.881Z,98342.80
2023-05-14T03:41:09.334Z,98350.36
2023-05-14T03:43:39.813Z,98349.85
2023-05-14T03:46:09.988Z,98348.85
2023-05-14T03:48:41.480Z,98350.60
2023-05-14T03:51:11.683Z,98349.02
2023-05-14T03:53:42.277Z,98351.21
2023-05-14T03:56:12.526Z,98351.02
2023-05-14T03:58:42.713Z,98351.88
2023-05-14T04:01:13.296Z,98352.04
2023-05-14T04:03:43.778Z,98348.21
2023-05-14T04:06:14.512Z,98350.75
2023-05-14T04:08:45.483Z,98350.08
2023-05-14T04:11:16.104Z,98352.00
2023-05-14T04:13:46.526Z,98354.96
2023-05-14T04:16:18.636Z,98356.27
2023-05-14T04:18:49.002Z,98355.73
2023-05-14T04:21:19.318Z,98359.71
2023-05-14T04:23:51.609Z,98360.20
2023-05-14T04:26:22.305Z,98362.25
2023-05-14T04:28:52.750Z,98357.16
2023-05-14T04:31:22.966Z,98354.04
2023-05-14T04:33:53.433Z,98356.63
2023-05-14T04:36:23.990Z,98354.25
2023-05-14T04:38:54.259Z,98355.79
2023-05-14T04:41:24.467Z,98355.52
2023-05-14T04:43:57.841Z,98357.52
2023-05-14T04:46:28.132Z,98353.98
2023-05-14T04:48:58.418Z,98354.20
2023-05-14T04:51:28.825Z,98351.73
2023-05-14T04:53:59.092Z,98361.15
2023-05-14T04:56:37.746Z,98362.42
2023-05-14T04:59:07.942Z,98366.59
2023-05-14T05:01:38.742Z,98369.10
2023-05-14T05:04:09.037Z,98368.17
2023-05-14T05:06:39.243Z,98367.67
2023-05-14T05:09:09.895Z,98367.65
2023-05-14T05:11:40.164Z,98370.10
2023-05-14T05:14:10.604Z,98368.88
2023-05-14T05:16:40.797Z,98365.67
2023-05-14T05:19:11.501Z,98362.34
2023-05-14T05:21:41.780Z,98362.01
2023-05-14T05:24:13.370Z,98361.17
2023-05-14T05:26:44.047Z,98362.92
2023-05-14T05:29:14.336Z,98362.10
2023-05-14T05:31:44.779Z,98365.54
2023-05-14T05:34:15.611Z,98364.23
2023-05-14T05:36:45.746Z,98364.09
2023-05-14T05:39:16.056Z,98364.46
2023-05-14T05:41:46.201Z,98364.77
2023-05-14T05:44:16.398Z,98367.30
2023-05-14T05:46:46.746Z,98362.52
2023-05-14T05:49:17.668Z,98362.75
2023-05-14T05:51:47.901Z,98364.09
2023-05-14T05:54:18.182Z,98361.89
2023-05-14T05:56:48.440Z,98355.77
2023-05-14T05:59:18.591Z,98356.52
2023-05-14T06:01:48.825Z,98359.69
2023-05-14T06:04:19.259Z,98361.48
2023-05-14T06:06:49.612Z,98355.63
2023-05-14T06:09:21.209Z,98359.09
2023-05-14T06:11:51.408Z,98362.51
2023-05-14T06:14:21.608Z,98364.92
2023-05-14T06:16:51.898Z,98365.30
2023-05-14T06:19:23.131Z,98358.39
2023-05-14T06:21:53.669Z,98363.97
2023-05-14T06:24:23.972Z,98361.35
2023-05-14T06:26:54.781Z,98364.04
2023-05-14T06:29:25.915Z,98369.41
2023-05-14T06:31:56.069Z,98368.34
2023-05-14T06:34:26.497Z,98366.80
2023-05-14T06:36:57.252Z,98368.86
2023-05-14T06:39:28.121Z,98368.10
2023-05-14T06:41:58.305Z,98365.88
2023-05-14T06:44:29.322Z,98370.02
2023-05-14T06:46:59.520Z,98370.55
2023-05-14T06:49:29.899Z,98372.05
2023-05-14T06:52:00.145Z,98371.05
2023-05-14T06:54:31.205Z,98373.59
2023-05-14T06:57:01.514Z,98375.48
2023-05-14T06:59:32.426Z,98366.28
2023-05-14T07:02:03.114Z,98366.64
2023-05-14T07:04:33.336Z,98366.61
2023-05-14T07:07:03.590Z,98368.23
2023-05-14T07:09:33.978Z,98364.85
2023-05-14T07:12:08.932Z,98365.88
2023-05-14T07:14:39.339Z,98362.45
2023-05-14T07:17:09.622Z,98361.66
2023-05-14T07:19:39.871Z,98354.61
2023-05-14T07:22:10.936Z,98358.94
2023-05-14T07:24:41.165Z,98351.38
2023-05-14T07:27:12.485Z,98350.95
2023-05-14T07:29:42.690Z,98348.08
2023-05-14T07:32:15.301Z,98341.44
2023-05-14T07:34:47.250Z,98342.95
2023-05-14T07:37:18.192Z,98341.35
2023-05-14T07:39:48.534Z,98337.89
2023-05-14T07:42:31.809Z,98339.06
2023-05-14T07:45:07.771Z,98336.96
2023-05-14T07:47:38.332Z,98339.55
2023-05-14T07:50:11.093Z,98334.52
2023-05-14T07:52:41.409Z,98336.05
2023-05-14T07:55:13.172Z,98335.70
2023-05-14T07:57:43.564Z,98339.60
2023-05-14T08:00:16.684Z,98339.65
2023-05-14T08:02:49.113Z,98333.89
2023-05-14T08:05:18.100Z,98326.79
2023-05-14T08:07:48.340Z,98330.52
2023-05-14T08:10:18.697Z,98323.80
2023-05-14T08:13:04.712Z,98319.61
2023-05-14T08:15:49.129Z,98324.26
2023-05-14T08:18:19.313Z,98316.30
2023-05-14T08:20:49.534Z,98314.98
2023-05-14T08:23:19.827Z,98312.05
2023-05-14T08:25:50.969Z,98309.43
2023-05-14T08:28:24.048Z,98307.66
2023-05-14T08:30:52.963Z,98304.73
2023-05-14T08:33:23.329Z,98305.67
2023-05-14T08:35:54.931Z,98300.77
2023-05-14T08:38:25.182Z,98297.44
2023-05-14T08:40:58.707Z,98294.34
2023-05-14T08:43:32.022Z,98297.99
2023-05-14T08:46:03.399Z,98293.47
2023-05-14T08:48:35.263Z,98292.99
2023-05-14T08:51:06.172Z,98295.93
2023-05-14T08:53:38.757Z,98290.44
2023-05-14T08:56:10.078Z,98290.02
2023-05-14T08:58:41.048Z,98288.69
2023-05-14T09:01:11.962Z,98281.27
2023-05-14T09:03:44.272Z,98283.82
2023-05-14T09:06:15.629Z,98281.30
2023-05-14T09:08:46.495Z,98274.55
2023-05-14T09:11:16.988Z,98270.73
2023-05-14T09:13:47.363Z,98270.70
2023-05-14T09:16:18.146Z,98267.95
2023-05-14T09:18:48.552Z,98271.08
2023-05-14T09:21:20.441Z,98268.71
2023-05-14T09:23:56.197Z,98274.29
2023-05-14T09:26:27.956Z,98275.67
2023-05-14T09:29:00.570Z,98274.69
2023-05-14T09:31:31.922Z,98269.83
2023-05-14T09:34:02.499Z,98270.61
2023-05-14T09:36:32.949Z,98269.04
2023-05-14T09:39:05.991Z,98261.80
2023-05-14T09:41:37.389Z,98268.27
2023-05-14T09:44:07.716Z,98263.23
2023-05-14T09:46:37.891Z,98265.52
2023-05-14T09:49:08.150Z,98262.60
2023-05-14T09:51:39.384Z,98267.77
2023-05-14T09:54:10.060Z,98265.66
2023-05-14T09:56:40.853Z,98272.30
2023-05-14T09:59:11.391Z,98270.59
2023-05-14T10:01:43.590Z,98265.17
2023-05-14T10:04:14.495Z,98265.13
2023-05-14T10:06:46.359Z,98261.88
2023-05-14T10:09:18.404Z,98258.83
2023-05-14T10:11:52.720Z,98262.86
2023-05-14T10:14:26.288Z,98262.37
2023-05-14T10:16:58.579Z,98264.84
2023-05-14T10:19:28.208Z,98267.17
2023-05-14T10:22:04.669Z,98267.23
2023-05-14T10:24:35.633Z,98269.33
2023-05-14T10:27:06.846Z,98267.15
2023-05-14T10:29:38.871Z,98269.25
2023-05-14T10:32:13.006Z,98266.84
2023-05-14T10:34:44.647Z,98262.62
2023-05-14T10:37:16.586Z,98260.44
2023-05-14T10:39:48.519Z,98257.88
2023-05-14T10:42:20.834Z,98255.90
2023-05-14T10:44:53.402Z,98258.90
2023-05-14T10:47:24.002Z,98258.77
2023-05-14T10:49:57.388Z,98255.02
2023-05-14T10:52:28.347Z,98254.46
2023-05-14T10:55:02.918Z,98250.67
2023-05-14T10:57:35.904Z,98249.27
2023-05-14T11:00:08.951Z,98250.25
2023-05-14T11:02:40.682Z,98250.13
2023-05-14T11:05:13.955Z,98250.66
2023-05-14T11:07:45.282Z,98247.09
2023-05-14T11:10:16.914Z,98245.30
2023-05-14T11:12:48.907Z,98243.42
2023-05-14T11:15:20.883Z,98238.65
2023-05-14T11:17:52.080Z,98235.82
2023-05-14T11:20:23.825Z,98230.32
2023-05-14T11:22:55.397Z,98222.77
2023-05-14T11:25:25.886Z,98219.52
2023-05-14T11:27:58.879Z,98219.70
2023-05-14T11:30:29.886Z,98213.23
2023-05-14T11:33:01.867Z,98209.06
2023-05-14T11:35:32.896Z,98206.58
2023-05-14T11:38:03.057Z,98207.88
2023-05-14T11:40:33.267Z,98208.66
2023-05-14T11:43:03.499Z,98206.92
2023-05-14T11:45:33.791Z,98197.58
2023-05-14T11:48:04.487Z,98205.16
2023-05-14T11:50:37.986Z,98208.58
2023-05-14T11:53:08.272Z,98206.94
2023-05-14T11:55:38.634Z,98202.83
2023-05-14T11:58:08.771Z,98196.41
2023-05-14T12:00:39.994Z,98199.41
2023-05-14T12:03:12.174Z,98194.98
2023-05-14T12:05:42.548Z,98194.79
2023-05-14T12:08:28.524Z,98198.56
2023-05-14T12:11:01.049Z,98195.64
2023-05-14T12:13:32.399Z,98195.40
2023-05-14T12:16:05.334Z,98188.02
2023-05-14T12:18:36.112Z,98183.14
2023-05-14T12:21:08.315Z,98180.42
2023-05-14T12:23:41.163Z,98171.38
2023-05-14T12:26:11.798Z,98165.86
2023-05-14T12:28:43.877Z,98164.64
2023-05-14T12:31:12.868Z,98160.76
2023-05-14T12:33:43.288Z,98147.96
2023-05-14T12:38:53.086Z,98146.26
2023-05-14T12:41:23.337Z,98145.59
2023-05-14T12:43:53.660Z,98142.11
2023-05-14T12:46:24.167Z,98137.43
2023-05-14T12:48:54.623Z,98136.48
2023-05-14T12:51:24.806Z,98135.47
2023-05-14T12:53:55.011Z,98131.27
2023-05-14T12:56:28.326Z,98123.58
2023-05-14T12:58:58.930Z,98124.61
2023-05-14T13:01:29.641Z,98113.22
2023-05-14T13:04:00.085Z,98109.33
2023-05-14T13:06:31.656Z,98100.27
2023-05-14T13:09:02.477Z,98095.20
2023-05-14T13:11:33.072Z,98096.93
2023-05-14T13:14:04.186Z,98092.23
2023-05-14T13:16:34.657Z,98089.77
2023-05-14T13:19:05.097Z,98092.14
2023-05-14T13:21:35.380Z,98085.60
2023-05-14T13:24:06.291Z,98078.02
2023-05-14T13:26:46.981Z,98072.75
2023-05-14T13:29:19.606Z,98076.77
2023-05-14T13:31:49.989Z,98075.42
2023-05-14T13:34:20.303Z,98070.99
2023-05-14T13:36:51.385Z,98067.18
2023-05-14T13:39:22.816Z,98062.97
2023-05-14T13:41:52.992Z,98065.63
2023-05-14T13:44:23.182Z,98065.45
2023-05-14T13:46:53.522Z,98064.84
2023-05-14T13:49:23.845Z,98055.34
2023-05-14T13:51:54.096Z,98055.69
2023-05-14T13:54:25.531Z,98056.96
2023-05-14T13:56:56.676Z,98051.03
2023-05-14T13:59:27.803Z,98046.75
2023-05-14T14:01:58.400Z,98038.92
2023-05-14T14:04:29.151Z,98035.36
2023-05-14T14:06:59.865Z,98034.69
2023-05-14T14:09:35.136Z,98031.94
2023-05-14T14:12:06.983Z,98030.77
2023-05-14T14:14:37.254Z,98031.77
2023-05-14T14:17:08.961Z,98029.31
2023-05-14T14:19:39.608Z,98023.09
2023-05-14T14:22:09.895Z,98022.73
2023-05-14T14:24:40.235Z,98018.13
2023-05-14T14:27:10.509Z,98019.06
2023-05-14T14:29:40.762Z,98019.35
2023-05-14T14:32:11.961Z,98012.86
2023-05-14T14:34:42.343Z,98013.66
2023-05-14T14:37:12.617Z,98016.91
2023-05-14T14:39:42.906Z,98015.55
2023-05-14T14:42:13.041Z,98008.38
2023-05-14T14:44:43.245Z,98001.96
2023-05-14T14:47:13.875Z,98002.23
2023-05-14T14:49:44.107Z,98000.57
2023-05-14T14:52:14.872Z,97996.88
2023-05-14T14:54:48.302Z,97995.52
2023-05-14T14:57:33.580Z,97998.86
2023-05-14T15:00:06.042Z,97992.73
2023-05-14T15:02:38.373Z,97990.36
2023-05-14T15:05:10.549Z,97984.94
2023-05-14T15:07:40.889Z,97984.84
2023-05-14T15:10:12.169Z,97978.64
2023-05-14T15:12:42.619Z,97983.02
2023-05-14T15:15:13.451Z,97984.40
2023-05-14T15:17:43.738Z,97983.37
2023-05-14T15:20:15.214Z,97985.73
2023-05-14T15:22:45.987Z,97989.66
2023-05-14T15:25:16.377Z,97985.67
2023-05-14T15:27:46.805Z,97983.42
2023-05-14T15:30:18.321Z,97984.52
2023-05-14T15:32:48.677Z,97986.56
2023-05-14T15:35:19.006Z,97989.12
2023-05-14T15:37:49.240Z,97995.95
2023-05-14T15:40:21.533Z,97997.19
2023-05-14T15:42:50.470Z,97999.27
2023-05-14T15:45:21.089Z,98000.86
2023-05-14T15:47:51.296Z,97999.41
2023-05-14T15:50:22.563Z,97997.54
2023-05-14T15:52:52.940Z,97995.38
2023-05-14T15:55:23.332Z,97997.56
2023-05-14T15:57:53.830Z,97996.35
2023-05-14T16:00:24.816Z,98002.37
2023-05-14T16:02:55.621Z,98004.39
2023-05-14T16:05:25.991Z,98006.71
2023-05-14T16:07:56.228Z,98008.95
2023-05-14T16:10:26.914Z,98005.91
2023-05-14T16:12:57.375Z,98003.64
2023-05-14T16:15:27.570Z,98009.20
2023-05-14T16:17:57.881Z,98014.11
2023-05-14T16:20:28.509Z,98013.10
2023-05-14T16:22:58.714Z,98012.69
2023-05-14T16:25:30.034Z,98014.98
2023-05-14T16:28:00.211Z,98011.92
2023-05-14T16:30:30.509Z,98017.11
2023-05-14T16:33:00.797Z,98019.48
2023-05-14T16:35:31.293Z,98019.83
2023-05-14T16:38:01.739Z,98021.85
2023-05-14T16:40:32.036Z,98019.88
2023-05-14T16:43:02.233Z,98021.64
2023-05-14T16:45:34.749Z,98017.79
2023-05-14T16:48:06.079Z,98015.85
2023-05-14T16:50:36.481Z,98013.60
2023-05-14T16:53:06.725Z,98012.11
2023-05-14T16:55:36.975Z,98014.23
2023-05-14T16:58:07.322Z,98012.13
2023-05-14T17:00:37.572Z,98013.84
2023-05-14T17:03:10.532Z,98014.33
2023-05-14T17:05:41.014Z,98009.77
2023-05-14T17:08:11.286Z,98010.76
2023-05-14T17:10:41.767Z,98007.02
2023-05-14T17:13:11.988Z,98014.90
2023-05-14T17:15:42.492Z,98014.61
2023-05-14T17:18:13.123Z,98010.70
2023-05-14T17:20:43.410Z,98013.05
2023-05-14T17:23:13.555Z,98009.17
2023-05-14T17:25:43.694Z,98006.76
2023-05-14T17:28:14.351Z,98002.06
2023-05-14T17:30:44.798Z,98002.39
2023-05-14T17:33:15.236Z,98003.82
2023-05-14T17:35:45.713Z,98005.79
2023-05-14T17:38:16.602Z,98001.84
2023-05-14T17:40:46.826Z,97998.30
2023-05-14T17:43:17.366Z,98003.21
2023-05-14T17:48:23.872Z,98003.52
2023-05-14T17:50:54.242Z,98004.02
2023-05-14T17:53:24.619Z,98009.46
2023-05-14T17:55:54.954Z,98008.73
2023-05-14T17:58:25.245Z,98011.14
2023-05-14T18:00:55.605Z,98013.96
2023-05-14T18:03:25.983Z,98010.27
2023-05-14T18:05:56.349Z,98014.08
2023-05-14T18:08:26.631Z,98016.77
2023-05-14T18:10:58.474Z,98020.45
2023-05-14T18:13:29.027Z,98021.31
2023-05-14T18:16:00.643Z,98021.58
2023-05-14T18:18:31.457Z,98024.39
2023-05-14T18:21:01.804Z,98027.34
2023-05-14T18:23:32.183Z,98030.61
2023-05-14T18:26:02.858Z,98029.71
2023-05-14T18:28:33.115Z,98030.70
2023-05-14T18:31:04.233Z,98036.31
2023-05-14T18:33:34.981Z,98038.14
2023-05-14T18:36:05.887Z,98035.78
2023-05-14T18:38:36.043Z,98037.49
2023-05-14T18:41:06.216Z,98042.06
2023-05-14T18:43:36.424Z,98041.55
2023-05-14T18:46:06.643Z,98040.73
2023-05-14T18:48:39.247Z,98043.36
2023-05-14T18:51:11.339Z,98047.04
2023-05-14T18:53:41.505Z,98049.31
2023-05-14T18:56:11.632Z,98051.21
2023-05-14T18:58:41.956Z,98049.02
2023-05-14T19:01:12.203Z,98048.83
2023-05-14T19:03:42.933Z,98043.71
2023-05-14T19:06:13.165Z,98051.61
2023-05-14T19:08:44.251Z,98056.00
2023-05-14T19:11:18.210Z,98055.27
2023-05-14T19:13:49.481Z,98060.11
2023-05-14T19:16:29.232Z,98062.30
2023-05-14T19:19:09.078Z,98063.61
2023-05-14T19:21:39.439Z,98061.66
2023-05-14T19:24:09.800Z,98064.77
2023-05-14T19:26:40.143Z,98067.91
2023-05-14T19:29:10.427Z,98067.71
2023-05-14T19:31:41.022Z,98072.78
2023-05-14T19:34:11.332Z,98069.05
2023-05-14T19:36:41.750Z,98067.77
2023-05-14T19:39:12.110Z,98067.61
2023-05-14T19:41:42.368Z,98074.60
2023-05-14T19:44:12.840Z,98067.27
2023-05-14T19:46:45.640Z,98077.86
2023-05-14T19:49:16.528Z,98079.34
2023-05-14T19:51:46.742Z,98081.23
2023-05-14T19:54:17.103Z,98079.80
2023-05-14T19:56:47.613Z,98075.17
2023-05-14T19:59:17.870Z,98080.85
2023-05-14T20:01:48.896Z,98076.34
2023-05-14T20:04:19.751Z,98071.77
2023-05-14T20:06:49.909Z,98070.77
2023-05-14T20:09:20.483Z,98074.13
2023-05-14T20:11:50.688Z,98078.35
2023-05-14T20:14:20.997Z,98073.70
2023-05-14T20:16:51.219Z,98070.52
2023-05-14T20:19:22.198Z,98072.58
2023-05-14T20:21:52.599Z,98068.13
2023-05-14T20:24:22.819Z,98074.08
2023-05-14T20:26:53.129Z,98072.13
2023-05-14T20:29:23.369Z,98069.89
2023-05-14T20:31:53.583Z,98067.64
2023-05-14T20:34:24.136Z,98065.95
2023-05-14T20:36:54.836Z,98064.60
2023-05-14T20:39:25.334Z,98065.20
2023-05-14T20:41:55.920Z,98062.79
2023-05-14T20:44:26.133Z,98065.45
2023-05-14T20:46:56.404Z,98070.59
2023-05-14T20:49:26.715Z,98067.66
2023-05-14T20:51:57.407Z,98062.08
2023-05-14T20:54:27.626Z,98059.27
2023-05-14T20:56:57.862Z,98058.23
2023-05-14T20:59:28.096Z,98053.79
2023-05-14T21:01:58.374Z,98054.55
2023-05-14T21:04:28.883Z,98056.40
2023-05-14T21:06:59.164Z,98052.66
2023-05-14T21:09:29.306Z,98052.36
2023-05-14T21:12:00.028Z,98050.52
2023-05-14T21:14:30.804Z,98050.09
2023-05-14T21:17:01.154Z,98049.86
2023-05-14T21:19:31.301Z,98050.13
2023-05-14T21:22:01.523Z,98049.50
2023-05-14T21:24:31.822Z,98045.03
2023-05-14T21:27:02.167Z,98041.36
2023-05-14T21:29:32.994Z,98042.55
2023-05-14T21:32:03.268Z,98040.27
2023-05-14T21:34:34.344Z,98043.87
2023-05-14T21:37:04.547Z,98043.09
2023-05-14T21:39:34.728Z,98043.53
2023-05-14T21:42:05.153Z,98042.56
2023-05-14T21:44:35.534Z,98038.09
2023-05-14T21:47:06.445Z,98037.58
2023-05-14T21:49:36.709Z,98037.36
2023-05-14T21:52:07.903Z,98030.91
2023-05-14T21:54:41.071Z,98027.04
2023-05-14T21:57:11.286Z,98029.63
2023-05-14T21:59:41.896Z,98030.12
2023-05-14T22:02:12.901Z,98022.55
2023-05-14T22:04:43.181Z,98026.05
2023-05-14T22:07:13.476Z,98021.13
2023-05-14T22:09:43.663Z,98022.77
2023-05-14T22:12:13.803Z,98021.29
2023-05-14T22:14:44.039Z,98020.95
2023-05-14T22:17:14.312Z,98026.52
2023-05-14T22:19:44.473Z,98031.21
2023-05-14T22:22:14.643Z,98030.33
2023-05-14T22:24:44.841Z,98022.10
2023-05-14T22:27:15.006Z,98026.00
2023-05-14T22:29:45.437Z,98022.56
2023-05-14T22:32:16.199Z,98018.66
2023-05-14T22:34:46.397Z,98019.11
2023-05-14T22:37:16.783Z,98016.42
2023-05-14T22:39:47.174Z,98016.33
2023-05-14T22:42:17.386Z,98015.02
2023-05-14T22:44:47.524Z,98009.89
2023-05-14T22:47:17.726Z,98010.92
2023-05-14T22:49:47.914Z,98012.66
2023-05-14T22:52:19.474Z,98008.13
2023-05-14T22:54:50.934Z,98005.02
2023-05-14T22:57:22.077Z,97997.63
2023-05-14T22:59:52.904Z,97994.02
2023-05-14T23:02:23.139Z,97994.98
2023-05-14T23:04:53.466Z,97984.76
2023-05-14T23:07:23.845Z,97984.16
2023-05-14T23:09:54.025Z,97985.39
2023-05-14T23:12:24.363Z,97977.34
2023-05-14T23:14:54.527Z,97979.21
2023-05-14T23:17:24.758Z,97978.32
2023-05-14T23:19:55.376Z,97973.84
2023-05-14T23:22:25.660Z,97971.61
2023-05-14T23:24:55.842Z,97970.29
2023-05-14T23:27:26.135Z,97971.20
2023-05-14T23:29:56.358Z,97971.91
2023-05-14T23:32:26.702Z,97969.64
2023-05-14T23:34:57.251Z,97969.92
2023-05-14T23:37:27.635Z,97967.46
2023-05-14T23:39:57.759Z,97967.61
2023-05-14T23:42:27.940Z,97963.09
2023-05-14T23:44:58.139Z,97958.05
2023-05-14T23:47:28.430Z,97961.21
2023-05-14T23:49:58.657Z,97955.84
2023-05-14T23:52:28.785Z,97948.84
2023-05-14T23:54:58.928Z,97950.73
2023-05-14T23:57:29.182Z,97947.27
2023-05-14T23:59:59.333Z,97944.81
